sensor_id;sensor_type;location;lat;lon;timestamp;P1;durP1;ratioP1;P2;durP2;ratioP2
76310;SDS011;65120;59.304;18.294;2022-12-29T00:00:09;18.52;;;1.38;;
76310;SDS011;65120;59.304;18.294;2022-12-29T00:02:37;9.10;;;1.52;;
76310;SDS011;65120;59.304;18.294;2022-12-29T00:05:04;8.15;;;1.00;;
76310;SDS011;65120;59.304;18.294;2022-12-29T00:07:33;2.67;;;1.15;;
76310;SDS011;65120;59.304;18.294;2022-12-29T00:10:00;7.72;;;0.90;;
76310;SDS011;65120;59.304;18.294;2022-12-29T00:12:27;3.55;;;0.75;;
76310;SDS011;65120;59.304;18.294;2022-12-29T00:15:14;3.70;;;0.65;;
76310;SDS011;65120;59.304;18.294;2022-12-29T00:17:59;3.00;;;1.17;;
76310;SDS011;65120;59.304;18.294;2022-12-29T00:20:26;16.05;;;1.17;;
76310;SDS011;65120;59.304;18.294;2022-12-29T00:23:11;9.38;;;0.80;;
76310;SDS011;65120;59.304;18.294;2022-12-29T00:25:55;2.35;;;0.80;;
76310;SDS011;65120;59.304;18.294;2022-12-29T00:28:39;7.28;;;0.70;;
76310;SDS011;65120;59.304;18.294;2022-12-29T00:31:23;3.13;;;0.60;;
76310;SDS011;65120;59.304;18.294;2022-12-29T00:34:08;7.15;;;0.55;;
76310;SDS011;65120;59.304;18.294;2022-12-29T00:36:54;2.78;;;0.60;;
76310;SDS011;65120;59.304;18.294;2022-12-29T00:39:23;2.05;;;0.82;;
76310;SDS011;65120;59.304;18.294;2022-12-29T00:42:08;1.77;;;0.75;;
76310;SDS011;65120;59.304;18.294;2022-12-29T00:44:53;2.75;;;0.65;;
76310;SDS011;65120;59.304;18.294;2022-12-29T00:47:20;9.45;;;0.75;;
76310;SDS011;65120;59.304;18.294;2022-12-29T00:49:46;1.60;;;0.77;;
76310;SDS011;65120;59.304;18.294;2022-12-29T00:52:12;3.60;;;1.00;;
76310;SDS011;65120;59.304;18.294;2022-12-29T00:54:41;1.05;;;0.50;;
76310;SDS011;65120;59.304;18.294;2022-12-29T00:57:11;4.22;;;0.63;;
76310;SDS011;65120;59.304;18.294;2022-12-29T00:59:38;2.83;;;0.60;;
76310;SDS011;65120;59.304;18.294;2022-12-29T01:02:07;1.75;;;0.80;;
76310;SDS011;65120;59.304;18.294;2022-12-29T01:04:34;4.90;;;0.70;;
76310;SDS011;65120;59.304;18.294;2022-12-29T01:07:01;1.10;;;0.55;;
76310;SDS011;65120;59.304;18.294;2022-12-29T01:09:28;3.17;;;0.68;;
76310;SDS011;65120;59.304;18.294;2022-12-29T01:12:14;3.80;;;0.65;;
76310;SDS011;65120;59.304;18.294;2022-12-29T01:14:41;1.40;;;0.70;;
76310;SDS011;65120;59.304;18.294;2022-12-29T01:17:08;6.75;;;0.80;;
76310;SDS011;65120;59.304;18.294;2022-12-29T01:19:35;2.00;;;1.00;;
76310;SDS011;65120;59.304;18.294;2022-12-29T01:22:02;4.43;;;0.60;;
76310;SDS011;65120;59.304;18.294;2022-12-29T01:24:28;4.97;;;0.70;;
76310;SDS011;65120;59.304;18.294;2022-12-29T01:26:55;5.47;;;0.50;;
76310;SDS011;65120;59.304;18.294;2022-12-29T01:29:24;2.47;;;0.45;;
76310;SDS011;65120;59.304;18.294;2022-12-29T01:31:51;12.95;;;0.77;;
76310;SDS011;65120;59.304;18.294;2022-12-29T01:34:17;7.22;;;1.00;;
76310;SDS011;65120;59.304;18.294;2022-12-29T01:36:44;3.83;;;0.55;;
76310;SDS011;65120;59.304;18.294;2022-12-29T01:39:11;11.13;;;0.93;;
76310;SDS011;65120;59.304;18.294;2022-12-29T01:41:38;8.57;;;0.70;;
76310;SDS011;65120;59.304;18.294;2022-12-29T01:47:07;0.98;;;0.52;;
76310;SDS011;65120;59.304;18.294;2022-12-29T01:49:34;1.80;;;0.50;;
76310;SDS011;65120;59.304;18.294;2022-12-29T01:52:02;7.45;;;0.70;;
76310;SDS011;65120;59.304;18.294;2022-12-29T01:54:34;4.03;;;0.73;;
76310;SDS011;65120;59.304;18.294;2022-12-29T01:57:07;2.58;;;0.50;;
76310;SDS011;65120;59.304;18.294;2022-12-29T01:59:37;6.70;;;0.70;;
76310;SDS011;65120;59.304;18.294;2022-12-29T02:02:09;2.85;;;0.80;;
76310;SDS011;65120;59.304;18.294;2022-12-29T02:04:38;2.25;;;0.77;;
76310;SDS011;65120;59.304;18.294;2022-12-29T02:07:10;2.40;;;0.70;;
76310;SDS011;65120;59.304;18.294;2022-12-29T02:09:42;1.88;;;0.90;;
76310;SDS011;65120;59.304;18.294;2022-12-29T02:12:09;9.65;;;0.82;;
76310;SDS011;65120;59.304;18.294;2022-12-29T02:14:36;4.15;;;0.50;;
76310;SDS011;65120;59.304;18.294;2022-12-29T02:17:05;2.13;;;0.80;;
76310;SDS011;65120;59.304;18.294;2022-12-29T02:20:08;1.63;;;0.60;;
76310;SDS011;65120;59.304;18.294;2022-12-29T02:22:54;1.55;;;0.45;;
76310;SDS011;65120;59.304;18.294;2022-12-29T02:25:45;9.18;;;0.55;;
76310;SDS011;65120;59.304;18.294;2022-12-29T02:28:51;1.23;;;0.50;;
76310;SDS011;65120;59.304;18.294;2022-12-29T02:31:35;1.67;;;0.55;;
76310;SDS011;65120;59.304;18.294;2022-12-29T02:34:13;1.65;;;0.47;;
76310;SDS011;65120;59.304;18.294;2022-12-29T02:36:50;1.10;;;0.40;;
76310;SDS011;65120;59.304;18.294;2022-12-29T02:39:28;4.30;;;0.40;;
76310;SDS011;65120;59.304;18.294;2022-12-29T02:42:04;2.65;;;0.30;;
76310;SDS011;65120;59.304;18.294;2022-12-29T02:44:42;1.23;;;0.45;;
76310;SDS011;65120;59.304;18.294;2022-12-29T02:47:22;0.63;;;0.30;;
76310;SDS011;65120;59.304;18.294;2022-12-29T02:49:57;1.05;;;0.30;;
76310;SDS011;65120;59.304;18.294;2022-12-29T02:52:30;1.10;;;0.30;;
76310;SDS011;65120;59.304;18.294;2022-12-29T02:55:00;1.10;;;0.50;;
76310;SDS011;65120;59.304;18.294;2022-12-29T02:57:29;0.80;;;0.40;;
76310;SDS011;65120;59.304;18.294;2022-12-29T03:00:00;1.60;;;0.20;;
76310;SDS011;65120;59.304;18.294;2022-12-29T03:08:28;1.60;;;0.40;;
76310;SDS011;65120;59.304;18.294;2022-12-29T03:11:04;0.55;;;0.30;;
76310;SDS011;65120;59.304;18.294;2022-12-29T03:13:56;3.40;;;0.30;;
76310;SDS011;65120;59.304;18.294;2022-12-29T03:16:46;1.38;;;0.40;;
76310;SDS011;65120;59.304;18.294;2022-12-29T03:19:16;1.00;;;0.35;;
76310;SDS011;65120;59.304;18.294;2022-12-29T03:21:52;2.45;;;0.30;;
76310;SDS011;65120;59.304;18.294;2022-12-29T03:24:40;2.78;;;0.30;;
76310;SDS011;65120;59.304;18.294;2022-12-29T03:27:10;0.57;;;0.30;;
76310;SDS011;65120;59.304;18.294;2022-12-29T03:29:44;1.92;;;0.30;;
76310;SDS011;65120;59.304;18.294;2022-12-29T03:32:20;3.83;;;0.30;;
76310;SDS011;65120;59.304;18.294;2022-12-29T03:34:49;2.67;;;0.98;;
76310;SDS011;65120;59.304;18.294;2022-12-29T03:37:22;1.60;;;0.20;;
76310;SDS011;65120;59.304;18.294;2022-12-29T03:39:52;0.75;;;0.40;;
76310;SDS011;65120;59.304;18.294;2022-12-29T03:42:20;4.72;;;0.60;;
76310;SDS011;65120;59.304;18.294;2022-12-29T03:44:49;0.85;;;0.45;;
76310;SDS011;65120;59.304;18.294;2022-12-29T03:47:20;2.88;;;0.40;;
76310;SDS011;65120;59.304;18.294;2022-12-29T03:49:47;1.73;;;0.43;;
76310;SDS011;65120;59.304;18.294;2022-12-29T03:52:15;3.55;;;0.40;;
76310;SDS011;65120;59.304;18.294;2022-12-29T03:54:44;1.63;;;0.32;;
76310;SDS011;65120;59.304;18.294;2022-12-29T03:57:11;0.68;;;0.30;;
76310;SDS011;65120;59.304;18.294;2022-12-29T03:59:38;0.60;;;0.40;;
76310;SDS011;65120;59.304;18.294;2022-12-29T04:02:05;1.65;;;0.65;;
76310;SDS011;65120;59.304;18.294;2022-12-29T04:04:32;1.10;;;0.40;;
76310;SDS011;65120;59.304;18.294;2022-12-29T04:06:58;0.93;;;0.43;;
76310;SDS011;65120;59.304;18.294;2022-12-29T04:09:25;5.18;;;0.45;;
76310;SDS011;65120;59.304;18.294;2022-12-29T04:11:54;0.60;;;0.35;;
76310;SDS011;65120;59.304;18.294;2022-12-29T04:14:21;1.83;;;0.40;;
76310;SDS011;65120;59.304;18.294;2022-12-29T04:16:47;5.18;;;0.50;;
76310;SDS011;65120;59.304;18.294;2022-12-29T04:19:14;4.13;;;0.40;;
76310;SDS011;65120;59.304;18.294;2022-12-29T04:21:41;1.60;;;0.30;;
76310;SDS011;65120;59.304;18.294;2022-12-29T04:24:08;1.75;;;0.55;;
76310;SDS011;65120;59.304;18.294;2022-12-29T04:26:35;1.80;;;0.30;;
76310;SDS011;65120;59.304;18.294;2022-12-29T04:29:03;0.90;;;0.30;;
76310;SDS011;65120;59.304;18.294;2022-12-29T04:31:30;0.82;;;0.43;;
76310;SDS011;65120;59.304;18.294;2022-12-29T04:33:57;1.67;;;0.40;;
76310;SDS011;65120;59.304;18.294;2022-12-29T04:36:25;2.53;;;0.40;;
76310;SDS011;65120;59.304;18.294;2022-12-29T04:38:52;0.70;;;0.40;;
76310;SDS011;65120;59.304;18.294;2022-12-29T04:41:18;2.47;;;0.30;;
76310;SDS011;65120;59.304;18.294;2022-12-29T04:43:45;2.67;;;0.43;;
76310;SDS011;65120;59.304;18.294;2022-12-29T04:46:14;1.80;;;0.43;;
76310;SDS011;65120;59.304;18.294;2022-12-29T04:48:41;0.90;;;0.30;;
76310;SDS011;65120;59.304;18.294;2022-12-29T04:51:07;1.08;;;0.40;;
76310;SDS011;65120;59.304;18.294;2022-12-29T04:53:34;0.60;;;0.30;;
76310;SDS011;65120;59.304;18.294;2022-12-29T04:56:01;2.00;;;0.32;;
76310;SDS011;65120;59.304;18.294;2022-12-29T04:58:29;2.25;;;0.40;;
76310;SDS011;65120;59.304;18.294;2022-12-29T05:00:56;2.60;;;0.40;;
76310;SDS011;65120;59.304;18.294;2022-12-29T05:03:24;2.53;;;0.55;;
76310;SDS011;65120;59.304;18.294;2022-12-29T05:05:52;1.50;;;0.40;;
76310;SDS011;65120;59.304;18.294;2022-12-29T05:08:20;2.20;;;0.40;;
76310;SDS011;65120;59.304;18.294;2022-12-29T05:10:47;0.80;;;0.40;;
76310;SDS011;65120;59.304;18.294;2022-12-29T05:13:16;2.03;;;0.30;;
76310;SDS011;65120;59.304;18.294;2022-12-29T05:15:45;1.17;;;0.40;;
76310;SDS011;65120;59.304;18.294;2022-12-29T05:18:14;0.43;;;0.30;;
76310;SDS011;65120;59.304;18.294;2022-12-29T05:20:42;0.30;;;0.20;;
76310;SDS011;65120;59.304;18.294;2022-12-29T05:23:09;0.60;;;0.60;;
76310;SDS011;65120;59.304;18.294;2022-12-29T05:25:36;2.75;;;0.30;;
76310;SDS011;65120;59.304;18.294;2022-12-29T05:28:03;1.85;;;0.30;;
76310;SDS011;65120;59.304;18.294;2022-12-29T05:30:30;2.05;;;0.38;;
76310;SDS011;65120;59.304;18.294;2022-12-29T05:32:57;0.95;;;0.30;;
76310;SDS011;65120;59.304;18.294;2022-12-29T05:35:24;2.42;;;0.20;;
76310;SDS011;65120;59.304;18.294;2022-12-29T05:37:52;0.50;;;0.35;;
76310;SDS011;65120;59.304;18.294;2022-12-29T05:40:19;0.82;;;0.30;;
76310;SDS011;65120;59.304;18.294;2022-12-29T05:42:46;0.28;;;0.20;;
76310;SDS011;65120;59.304;18.294;2022-12-29T05:45:13;2.45;;;0.30;;
76310;SDS011;65120;59.304;18.294;2022-12-29T05:47:40;2.53;;;0.30;;
76310;SDS011;65120;59.304;18.294;2022-12-29T05:50:07;1.83;;;0.20;;
76310;SDS011;65120;59.304;18.294;2022-12-29T05:52:34;1.38;;;0.20;;
76310;SDS011;65120;59.304;18.294;2022-12-29T05:55:02;3.28;;;0.20;;
76310;SDS011;65120;59.304;18.294;2022-12-29T05:57:30;0.47;;;0.10;;
76310;SDS011;65120;59.304;18.294;2022-12-29T05:59:57;1.02;;;0.13;;
76310;SDS011;65120;59.304;18.294;2022-12-29T06:02:24;1.05;;;0.10;;
76310;SDS011;65120;59.304;18.294;2022-12-29T06:04:50;1.33;;;0.25;;
76310;SDS011;65120;59.304;18.294;2022-12-29T06:07:17;0.25;;;0.10;;
76310;SDS011;65120;59.304;18.294;2022-12-29T06:09:44;2.10;;;0.20;;
76310;SDS011;65120;59.304;18.294;2022-12-29T06:12:12;1.30;;;0.40;;
76310;SDS011;65120;59.304;18.294;2022-12-29T06:14:39;1.08;;;0.20;;
76310;SDS011;65120;59.304;18.294;2022-12-29T06:17:06;0.40;;;0.10;;
76310;SDS011;65120;59.304;18.294;2022-12-29T06:19:33;0.50;;;0.10;;
76310;SDS011;65120;59.304;18.294;2022-12-29T06:22:00;1.30;;;0.20;;
76310;SDS011;65120;59.304;18.294;2022-12-29T06:24:28;0.43;;;0.10;;
76310;SDS011;65120;59.304;18.294;2022-12-29T06:26:54;1.08;;;0.17;;
76310;SDS011;65120;59.304;18.294;2022-12-29T06:29:23;1.40;;;0.40;;
76310;SDS011;65120;59.304;18.294;2022-12-29T06:31:50;2.40;;;0.30;;
76310;SDS011;65120;59.304;18.294;2022-12-29T06:34:21;1.73;;;0.30;;
76310;SDS011;65120;59.304;18.294;2022-12-29T06:36:48;0.70;;;0.30;;
76310;SDS011;65120;59.304;18.294;2022-12-29T06:39:14;0.10;;;0.10;;
76310;SDS011;65120;59.304;18.294;2022-12-29T06:41:41;1.23;;;0.20;;
76310;SDS011;65120;59.304;18.294;2022-12-29T06:44:08;2.00;;;0.20;;
76310;SDS011;65120;59.304;18.294;2022-12-29T06:46:36;2.55;;;0.40;;
76310;SDS011;65120;59.304;18.294;2022-12-29T06:49:03;2.30;;;0.50;;
76310;SDS011;65120;59.304;18.294;2022-12-29T06:51:30;5.22;;;0.40;;
76310;SDS011;65120;59.304;18.294;2022-12-29T06:53:57;0.73;;;0.32;;
76310;SDS011;65120;59.304;18.294;2022-12-29T06:56:24;4.65;;;0.45;;
76310;SDS011;65120;59.304;18.294;2022-12-29T06:58:51;0.90;;;0.30;;
76310;SDS011;65120;59.304;18.294;2022-12-29T07:01:18;2.05;;;0.40;;
76310;SDS011;65120;59.304;18.294;2022-12-29T07:03:46;2.85;;;0.70;;
76310;SDS011;65120;59.304;18.294;2022-12-29T07:06:13;2.92;;;1.02;;
76310;SDS011;65120;59.304;18.294;2022-12-29T07:08:40;3.03;;;0.70;;
76310;SDS011;65120;59.304;18.294;2022-12-29T07:11:07;2.80;;;0.40;;
76310;SDS011;65120;59.304;18.294;2022-12-29T07:13:33;3.60;;;0.65;;
76310;SDS011;65120;59.304;18.294;2022-12-29T07:16:04;5.47;;;0.60;;
76310;SDS011;65120;59.304;18.294;2022-12-29T07:18:31;3.30;;;0.80;;
76310;SDS011;65120;59.304;18.294;2022-12-29T07:20:59;2.08;;;0.50;;
76310;SDS011;65120;59.304;18.294;2022-12-29T07:23:26;4.07;;;0.93;;
76310;SDS011;65120;59.304;18.294;2022-12-29T07:25:58;4.45;;;0.70;;
76310;SDS011;65120;59.304;18.294;2022-12-29T07:28:26;5.20;;;0.93;;
76310;SDS011;65120;59.304;18.294;2022-12-29T07:30:52;4.05;;;1.42;;
76310;SDS011;65120;59.304;18.294;2022-12-29T07:33:19;3.95;;;2.00;;
76310;SDS011;65120;59.304;18.294;2022-12-29T07:35:46;1.73;;;0.82;;
76310;SDS011;65120;59.304;18.294;2022-12-29T07:38:14;3.83;;;0.95;;
76310;SDS011;65120;59.304;18.294;2022-12-29T07:40:41;1.90;;;1.17;;
76310;SDS011;65120;59.304;18.294;2022-12-29T07:43:08;2.55;;;0.90;;
76310;SDS011;65120;59.304;18.294;2022-12-29T07:45:35;7.35;;;1.40;;
76310;SDS011;65120;59.304;18.294;2022-12-29T07:48:02;3.85;;;0.80;;
76310;SDS011;65120;59.304;18.294;2022-12-29T07:50:30;8.50;;;1.10;;
76310;SDS011;65120;59.304;18.294;2022-12-29T07:52:57;3.90;;;0.98;;
76310;SDS011;65120;59.304;18.294;2022-12-29T07:55:26;5.78;;;1.83;;
76310;SDS011;65120;59.304;18.294;2022-12-29T07:57:52;4.50;;;1.05;;
76310;SDS011;65120;59.304;18.294;2022-12-29T08:00:20;6.38;;;1.02;;
76310;SDS011;65120;59.304;18.294;2022-12-29T08:02:47;3.53;;;1.20;;
76310;SDS011;65120;59.304;18.294;2022-12-29T08:05:14;3.35;;;1.08;;
76310;SDS011;65120;59.304;18.294;2022-12-29T08:07:42;2.92;;;0.88;;
76310;SDS011;65120;59.304;18.294;2022-12-29T08:10:09;5.65;;;1.48;;
76310;SDS011;65120;59.304;18.294;2022-12-29T08:12:38;1.77;;;0.93;;
76310;SDS011;65120;59.304;18.294;2022-12-29T08:15:07;8.48;;;1.30;;
76310;SDS011;65120;59.304;18.294;2022-12-29T08:17:35;4.45;;;1.25;;
76310;SDS011;65120;59.304;18.294;2022-12-29T08:20:02;4.93;;;1.20;;
76310;SDS011;65120;59.304;18.294;2022-12-29T08:22:30;2.45;;;1.38;;
76310;SDS011;65120;59.304;18.294;2022-12-29T08:24:57;3.42;;;0.73;;
76310;SDS011;65120;59.304;18.294;2022-12-29T08:27:24;3.05;;;1.02;;
76310;SDS011;65120;59.304;18.294;2022-12-29T08:29:53;7.47;;;1.50;;
76310;SDS011;65120;59.304;18.294;2022-12-29T08:32:19;5.07;;;1.10;;
76310;SDS011;65120;59.304;18.294;2022-12-29T08:34:46;4.63;;;0.90;;
76310;SDS011;65120;59.304;18.294;2022-12-29T08:37:13;4.32;;;1.00;;
76310;SDS011;65120;59.304;18.294;2022-12-29T08:39:40;4.30;;;1.30;;
76310;SDS011;65120;59.304;18.294;2022-12-29T08:42:07;6.53;;;1.00;;
76310;SDS011;65120;59.304;18.294;2022-12-29T08:44:34;5.75;;;1.20;;
76310;SDS011;65120;59.304;18.294;2022-12-29T08:47:02;5.07;;;1.13;;
76310;SDS011;65120;59.304;18.294;2022-12-29T08:49:29;3.53;;;1.27;;
76310;SDS011;65120;59.304;18.294;2022-12-29T08:51:56;2.83;;;0.88;;
76310;SDS011;65120;59.304;18.294;2022-12-29T08:54:23;4.93;;;1.20;;
76310;SDS011;65120;59.304;18.294;2022-12-29T08:56:50;6.35;;;0.90;;
76310;SDS011;65120;59.304;18.294;2022-12-29T08:59:16;6.32;;;0.98;;
76310;SDS011;65120;59.304;18.294;2022-12-29T09:01:43;3.55;;;0.88;;
76310;SDS011;65120;59.304;18.294;2022-12-29T09:04:11;3.80;;;0.73;;
76310;SDS011;65120;59.304;18.294;2022-12-29T09:06:38;6.10;;;0.40;;
76310;SDS011;65120;59.304;18.294;2022-12-29T09:09:05;5.88;;;1.20;;
76310;SDS011;65120;59.304;18.294;2022-12-29T09:11:32;3.75;;;0.60;;
76310;SDS011;65120;59.304;18.294;2022-12-29T09:13:59;3.08;;;0.57;;
76310;SDS011;65120;59.304;18.294;2022-12-29T09:16:26;4.07;;;0.50;;
76310;SDS011;65120;59.304;18.294;2022-12-29T09:18:53;2.33;;;0.50;;
76310;SDS011;65120;59.304;18.294;2022-12-29T09:21:21;5.28;;;0.40;;
76310;SDS011;65120;59.304;18.294;2022-12-29T09:23:48;1.63;;;0.30;;
76310;SDS011;65120;59.304;18.294;2022-12-29T09:26:15;7.78;;;0.45;;
76310;SDS011;65120;59.304;18.294;2022-12-29T09:28:42;0.60;;;0.20;;
76310;SDS011;65120;59.304;18.294;2022-12-29T09:31:09;2.45;;;0.30;;
76310;SDS011;65120;59.304;18.294;2022-12-29T09:33:36;2.33;;;0.20;;
76310;SDS011;65120;59.304;18.294;2022-12-29T09:36:03;0.43;;;0.20;;
76310;SDS011;65120;59.304;18.294;2022-12-29T09:38:32;0.65;;;0.15;;
76310;SDS011;65120;59.304;18.294;2022-12-29T09:41:01;0.50;;;0.10;;
76310;SDS011;65120;59.304;18.294;2022-12-29T09:43:45;0.20;;;0.10;;
76310;SDS011;65120;59.304;18.294;2022-12-29T09:46:26;1.75;;;0.10;;
76310;SDS011;65120;59.304;18.294;2022-12-29T09:49:04;0.35;;;0.10;;
76310;SDS011;65120;59.304;18.294;2022-12-29T09:51:42;0.28;;;0.10;;
76310;SDS011;65120;59.304;18.294;2022-12-29T09:57:10;1.48;;;0.43;;
76310;SDS011;65120;59.304;18.294;2022-12-29T09:59:43;1.35;;;0.17;;
76310;SDS011;65120;59.304;18.294;2022-12-29T10:02:16;2.88;;;0.28;;
76310;SDS011;65120;59.304;18.294;2022-12-29T10:04:53;1.33;;;0.30;;
76310;SDS011;65120;59.304;18.294;2022-12-29T10:07:24;2.95;;;0.20;;
76310;SDS011;65120;59.304;18.294;2022-12-29T10:10:02;3.10;;;0.20;;
76310;SDS011;65120;59.304;18.294;2022-12-29T10:12:44;2.80;;;0.60;;
76310;SDS011;65120;59.304;18.294;2022-12-29T10:15:30;0.88;;;0.20;;
76310;SDS011;65120;59.304;18.294;2022-12-29T10:18:11;3.47;;;0.30;;
76310;SDS011;65120;59.304;18.294;2022-12-29T10:20:51;1.30;;;0.20;;
76310;SDS011;65120;59.304;18.294;2022-12-29T10:23:24;3.95;;;0.20;;
76310;SDS011;65120;59.304;18.294;2022-12-29T10:25:56;2.15;;;0.20;;
76310;SDS011;65120;59.304;18.294;2022-12-29T10:28:34;0.50;;;0.10;;
76310;SDS011;65120;59.304;18.294;2022-12-29T10:31:07;1.45;;;0.60;;
76310;SDS011;65120;59.304;18.294;2022-12-29T10:33:41;0.70;;;0.20;;
76310;SDS011;65120;59.304;18.294;2022-12-29T10:36:12;0.75;;;0.20;;
76310;SDS011;65120;59.304;18.294;2022-12-29T10:38:44;0.30;;;0.17;;
76310;SDS011;65120;59.304;18.294;2022-12-29T10:41:20;4.30;;;0.50;;
76310;SDS011;65120;59.304;18.294;2022-12-29T10:43:50;1.45;;;0.20;;
76310;SDS011;65120;59.304;18.294;2022-12-29T10:46:20;1.55;;;0.20;;
76310;SDS011;65120;59.304;18.294;2022-12-29T10:48:49;1.65;;;0.20;;
76310;SDS011;65120;59.304;18.294;2022-12-29T10:51:18;0.20;;;0.15;;
76310;SDS011;65120;59.304;18.294;2022-12-29T10:53:49;0.55;;;0.10;;
76310;SDS011;65120;59.304;18.294;2022-12-29T10:56:25;1.60;;;0.10;;
76310;SDS011;65120;59.304;18.294;2022-12-29T10:59:00;1.38;;;0.10;;
76310;SDS011;65120;59.304;18.294;2022-12-29T11:01:36;1.20;;;0.17;;
76310;SDS011;65120;59.304;18.294;2022-12-29T11:04:15;1.00;;;0.10;;
76310;SDS011;65120;59.304;18.294;2022-12-29T11:06:56;0.35;;;0.28;;
76310;SDS011;65120;59.304;18.294;2022-12-29T11:09:24;0.10;;;0.10;;
76310;SDS011;65120;59.304;18.294;2022-12-29T11:11:56;1.42;;;0.30;;
76310;SDS011;65120;59.304;18.294;2022-12-29T11:14:26;0.38;;;0.13;;
76310;SDS011;65120;59.304;18.294;2022-12-29T11:16:59;0.30;;;0.20;;
76310;SDS011;65120;59.304;18.294;2022-12-29T11:19:28;1.10;;;0.20;;
76310;SDS011;65120;59.304;18.294;2022-12-29T11:21:56;0.20;;;0.10;;
76310;SDS011;65120;59.304;18.294;2022-12-29T11:24:43;0.30;;;0.10;;
76310;SDS011;65120;59.304;18.294;2022-12-29T11:27:13;0.90;;;0.20;;
76310;SDS011;65120;59.304;18.294;2022-12-29T11:29:43;0.20;;;0.10;;
76310;SDS011;65120;59.304;18.294;2022-12-29T11:32:12;0.25;;;0.20;;
76310;SDS011;65120;59.304;18.294;2022-12-29T11:34:44;1.33;;;0.15;;
76310;SDS011;65120;59.304;18.294;2022-12-29T11:37:12;0.47;;;0.20;;
76310;SDS011;65120;59.304;18.294;2022-12-29T11:39:41;0.22;;;0.20;;
76310;SDS011;65120;59.304;18.294;2022-12-29T11:42:15;0.32;;;0.10;;
76310;SDS011;65120;59.304;18.294;2022-12-29T11:44:45;0.30;;;0.10;;
76310;SDS011;65120;59.304;18.294;2022-12-29T11:47:22;0.32;;;0.10;;
76310;SDS011;65120;59.304;18.294;2022-12-29T11:49:53;0.40;;;0.20;;
76310;SDS011;65120;59.304;18.294;2022-12-29T11:52:23;0.10;;;0.10;;
76310;SDS011;65120;59.304;18.294;2022-12-29T11:54:52;0.32;;;0.20;;
76310;SDS011;65120;59.304;18.294;2022-12-29T11:57:22;0.20;;;0.20;;
76310;SDS011;65120;59.304;18.294;2022-12-29T11:59:50;0.43;;;0.20;;
76310;SDS011;65120;59.304;18.294;2022-12-29T12:02:27;0.20;;;0.15;;
76310;SDS011;65120;59.304;18.294;2022-12-29T12:05:03;1.73;;;0.20;;
76310;SDS011;65120;59.304;18.294;2022-12-29T12:07:38;1.67;;;0.17;;
76310;SDS011;65120;59.304;18.294;2022-12-29T12:10:11;0.52;;;0.10;;
76310;SDS011;65120;59.304;18.294;2022-12-29T12:15:16;0.15;;;0.15;;
76310;SDS011;65120;59.304;18.294;2022-12-29T12:17:48;0.10;;;0.10;;
76310;SDS011;65120;59.304;18.294;2022-12-29T12:20:19;1.33;;;0.20;;
76310;SDS011;65120;59.304;18.294;2022-12-29T12:22:51;0.57;;;0.10;;
76310;SDS011;65120;59.304;18.294;2022-12-29T12:25:27;0.52;;;0.15;;
76310;SDS011;65120;59.304;18.294;2022-12-29T12:28:05;0.43;;;0.20;;
76310;SDS011;65120;59.304;18.294;2022-12-29T12:30:40;0.10;;;0.10;;
76310;SDS011;65120;59.304;18.294;2022-12-29T12:33:16;0.28;;;0.20;;
76310;SDS011;65120;59.304;18.294;2022-12-29T12:35:52;0.30;;;0.10;;
76310;SDS011;65120;59.304;18.294;2022-12-29T12:38:28;0.10;;;0.10;;
76310;SDS011;65120;59.304;18.294;2022-12-29T12:41:07;0.10;;;0.10;;
76310;SDS011;65120;59.304;18.294;2022-12-29T12:43:38;0.65;;;0.63;;
76310;SDS011;65120;59.304;18.294;2022-12-29T12:46:19;0.60;;;0.08;;
76310;SDS011;65120;59.304;18.294;2022-12-29T12:52:02;0.10;;;0.10;;
76310;SDS011;65120;59.304;18.294;2022-12-29T12:54:44;0.10;;;0.10;;
76310;SDS011;65120;59.304;18.294;2022-12-29T12:57:29;0.73;;;0.20;;
76310;SDS011;65120;59.304;18.294;2022-12-29T13:00:10;0.90;;;0.20;;
76310;SDS011;65120;59.304;18.294;2022-12-29T13:02:45;0.10;;;0.10;;
76310;SDS011;65120;59.304;18.294;2022-12-29T13:05:29;0.20;;;0.20;;
76310;SDS011;65120;59.304;18.294;2022-12-29T13:08:24;0.20;;;0.20;;
76310;SDS011;65120;59.304;18.294;2022-12-29T13:11:09;0.20;;;0.20;;
76310;SDS011;65120;59.304;18.294;2022-12-29T13:19:14;0.60;;;0.17;;
76310;SDS011;65120;59.304;18.294;2022-12-29T13:21:55;0.10;;;0.10;;
76310;SDS011;65120;59.304;18.294;2022-12-29T13:24:30;0.10;;;0.10;;
76310;SDS011;65120;59.304;18.294;2022-12-29T13:27:04;0.20;;;0.20;;
76310;SDS011;65120;59.304;18.294;2022-12-29T13:29:42;0.82;;;0.20;;
76310;SDS011;65120;59.304;18.294;2022-12-29T13:32:23;0.73;;;0.20;;
76310;SDS011;65120;59.304;18.294;2022-12-29T13:35:01;0.52;;;0.17;;
76310;SDS011;65120;59.304;18.294;2022-12-29T13:37:41;1.77;;;0.20;;
76310;SDS011;65120;59.304;18.294;2022-12-29T13:40:14;0.20;;;0.20;;
76310;SDS011;65120;59.304;18.294;2022-12-29T13:42:43;0.20;;;0.20;;
76310;SDS011;65120;59.304;18.294;2022-12-29T13:45:14;0.20;;;0.20;;
76310;SDS011;65120;59.304;18.294;2022-12-29T13:47:46;0.10;;;0.10;;
76310;SDS011;65120;59.304;18.294;2022-12-29T13:50:19;0.10;;;0.10;;
76310;SDS011;65120;59.304;18.294;2022-12-29T13:52:48;0.47;;;0.17;;
76310;SDS011;65120;59.304;18.294;2022-12-29T13:55:24;0.20;;;0.10;;
76310;SDS011;65120;59.304;18.294;2022-12-29T13:57:56;1.65;;;0.10;;
76310;SDS011;65120;59.304;18.294;2022-12-29T14:00:31;0.75;;;0.10;;
76310;SDS011;65120;59.304;18.294;2022-12-29T14:03:17;0.25;;;0.20;;
76310;SDS011;65120;59.304;18.294;2022-12-29T14:06:03;0.20;;;0.20;;
76310;SDS011;65120;59.304;18.294;2022-12-29T14:08:38;0.65;;;0.10;;
76310;SDS011;65120;59.304;18.294;2022-12-29T14:11:07;0.20;;;0.10;;
76310;SDS011;65120;59.304;18.294;2022-12-29T14:13:37;0.52;;;0.52;;
76310;SDS011;65120;59.304;18.294;2022-12-29T14:16:06;0.30;;;0.20;;
76310;SDS011;65120;59.304;18.294;2022-12-29T14:18:42;0.38;;;0.20;;
76310;SDS011;65120;59.304;18.294;2022-12-29T14:21:11;0.40;;;0.10;;
76310;SDS011;65120;59.304;18.294;2022-12-29T14:23:52;0.20;;;0.20;;
76310;SDS011;65120;59.304;18.294;2022-12-29T14:26:33;0.38;;;0.20;;
76310;SDS011;65120;59.304;18.294;2022-12-29T14:29:15;0.30;;;0.20;;
76310;SDS011;65120;59.304;18.294;2022-12-29T14:31:57;0.95;;;0.25;;
76310;SDS011;65120;59.304;18.294;2022-12-29T14:34:28;0.85;;;0.30;;
76310;SDS011;65120;59.304;18.294;2022-12-29T14:36:56;0.30;;;0.30;;
76310;SDS011;65120;59.304;18.294;2022-12-29T14:39:35;0.75;;;0.57;;
76310;SDS011;65120;59.304;18.294;2022-12-29T14:42:04;0.52;;;0.40;;
76310;SDS011;65120;59.304;18.294;2022-12-29T14:44:45;2.03;;;0.40;;
76310;SDS011;65120;59.304;18.294;2022-12-29T14:47:14;0.90;;;0.40;;
76310;SDS011;65120;59.304;18.294;2022-12-29T14:49:47;0.60;;;0.40;;
76310;SDS011;65120;59.304;18.294;2022-12-29T14:52:15;1.63;;;0.50;;
76310;SDS011;65120;59.304;18.294;2022-12-29T14:54:46;0.95;;;0.70;;
76310;SDS011;65120;59.304;18.294;2022-12-29T14:57:28;1.13;;;0.50;;
76310;SDS011;65120;59.304;18.294;2022-12-29T15:00:02;1.40;;;0.60;;
76310;SDS011;65120;59.304;18.294;2022-12-29T15:02:34;5.63;;;0.80;;
76310;SDS011;65120;59.304;18.294;2022-12-29T15:05:10;3.45;;;0.80;;
76310;SDS011;65120;59.304;18.294;2022-12-29T15:07:52;2.97;;;0.90;;
76310;SDS011;65120;59.304;18.294;2022-12-29T15:10:19;0.98;;;0.50;;
76310;SDS011;65120;59.304;18.294;2022-12-29T15:12:49;1.65;;;0.43;;
76310;SDS011;65120;59.304;18.294;2022-12-29T15:15:20;1.98;;;0.70;;
76310;SDS011;65120;59.304;18.294;2022-12-29T15:17:49;1.08;;;0.60;;
76310;SDS011;65120;59.304;18.294;2022-12-29T15:20:25;2.03;;;0.40;;